createdAt,value
2018-05-12T00:03:24.380Z,9.29
2018-05-12T00:09:19.381Z,8.65
2018-05-12T00:15:14.437Z,7.98
2018-05-12T00:21:09.385Z,9.13
2018-05-12T00:27:04.400Z,7.45
2018-05-12T00:32:59.409Z,8.92
2018-05-12T00:38:54.386Z,9.58
2018-05-12T00:44:49.400Z,10.51
2018-05-12T00:50:44.413Z,9.8
2018-05-12T00:56:39.436Z,9.12
2018-05-12T01:02:34.403Z,9.15
2018-05-12T01:08:29.438Z,10.28
2018-05-12T01:14:24.393Z,9.01
2018-05-12T01:20:19.448Z,10.28
2018-05-12T01:26:14.402Z,9.7
2018-05-12T01:32:09.468Z,9.97
2018-05-12T01:38:04.463Z,11.15
2018-05-12T01:43:59.455Z,10.55
2018-05-12T01:49:54.408Z,8.64
2018-05-12T01:55:49.454Z,9.87
2018-05-12T02:01:44.461Z,10.86
2018-05-12T02:07:39.446Z,11.42
2018-05-12T02:13:34.466Z,8.56
2018-05-12T02:19:29.446Z,9.41
2018-05-12T02:25:24.532Z,8.93
2018-05-12T02:31:19.462Z,11.34
2018-05-12T02:37:14.443Z,10.69
2018-05-12T02:43:09.494Z,10.42
2018-05-12T02:49:04.437Z,12.27
2018-05-12T02:54:59.489Z,12.11
2018-05-12T03:00:54.496Z,11.63
2018-05-12T03:06:49.466Z,11.77
2018-05-12T03:12:44.526Z,11.5
2018-05-12T03:18:39.469Z,12.04
2018-05-12T03:24:34.489Z,12.52
2018-05-12T03:30:29.476Z,11.27
2018-05-12T03:36:24.513Z,11.55
2018-05-12T03:42:19.482Z,11.94
2018-05-12T03:48:14.498Z,13.38
2018-05-12T03:54:09.523Z,13.01
2018-05-12T04:00:04.535Z,11.8
2018-05-12T04:05:59.503Z,12.51
2018-05-12T04:11:54.504Z,11.99
2018-05-12T04:17:49.548Z,13.77
2018-05-12T04:23:44.548Z,14.88
2018-05-12T04:29:39.543Z,14.92
2018-05-12T04:35:34.518Z,14.27
2018-05-12T04:41:29.513Z,14.5
2018-05-12T04:47:24.552Z,13.27
2018-05-12T04:53:19.536Z,15.42
2018-05-12T04:59:14.550Z,16.37
2018-05-12T05:05:09.514Z,15.47
2018-05-12T05:11:04.521Z,14.81
2018-05-12T05:16:59.581Z,13.1
2018-05-12T05:22:54.540Z,13.98
2018-05-12T05:28:49.537Z,13.73
2018-05-12T05:34:44.553Z,12.72
2018-05-12T05:40:39.553Z,11.66
2018-05-12T05:46:34.533Z,10.93
2018-05-12T05:52:29.585Z,14.5
2018-05-12T05:58:24.562Z,14.72
2018-05-12T06:04:19.676Z,13.84
2018-05-12T06:10:14.597Z,14.2
2018-05-12T06:16:09.593Z,12.88
2018-05-12T06:22:04.561Z,11.61
2018-05-12T06:27:59.674Z,10.55
2018-05-12T06:33:54.686Z,10.44
2018-05-12T06:39:49.601Z,11.15
2018-05-12T06:45:44.600Z,11.13
2018-05-12T06:51:39.639Z,10.8
2018-05-12T06:57:34.607Z,10.25
2018-05-12T07:03:29.613Z,11.36
2018-05-12T07:09:24.646Z,9.39
2018-05-12T07:15:19.619Z,10.16
2018-05-12T07:21:14.604Z,10.74
2018-05-12T07:27:09.664Z,10.4
2018-05-12T07:33:04.620Z,10.18
2018-05-12T07:38:59.749Z,8.88
2018-05-12T07:44:54.668Z,8.85
2018-05-12T07:50:49.590Z,9.93
2018-05-12T07:56:44.644Z,11.01
2018-05-12T08:02:39.619Z,10.85
2018-05-12T08:08:34.649Z,9.68
2018-05-12T08:14:29.660Z,9.82
2018-05-12T08:20:24.630Z,6.67
2018-05-12T08:26:19.698Z,7.79
2018-05-12T08:32:14.641Z,8.01
2018-05-12T08:38:09.652Z,7.31
2018-05-12T08:44:04.673Z,6.28
2018-05-12T08:49:59.673Z,6.48
2018-05-12T08:55:54.663Z,5.64
2018-05-12T09:01:49.668Z,6.28
2018-05-12T09:07:44.653Z,5.64
2018-05-12T09:13:39.652Z,5.57
2018-05-12T09:19:34.661Z,5.15
2018-05-12T09:25:29.692Z,5.17
2018-05-12T09:31:24.681Z,4.94
2018-05-12T09:37:19.731Z,4.63
2018-05-12T09:43:14.680Z,4.99
2018-05-12T09:49:09.666Z,5.51
2018-05-12T09:55:04.746Z,5.08
2018-05-12T10:00:59.777Z,5.1
2018-05-12T10:06:54.683Z,4.4
2018-05-12T10:12:49.691Z,4.1
2018-05-12T10:18:44.723Z,5.97
2018-05-12T10:24:39.680Z,5.55
2018-05-12T10:30:34.712Z,5.1
2018-05-12T10:36:29.730Z,5.98
2018-05-12T10:42:24.689Z,6.11
2018-05-12T10:48:19.712Z,6.16
2018-05-12T10:54:14.711Z,5.57
2018-05-12T11:00:09.772Z,5.13
2018-05-12T11:06:04.706Z,5.87
2018-05-12T11:11:59.753Z,4.63
2018-05-12T11:17:54.760Z,5.43
2018-05-12T11:23:49.713Z,5.51
2018-05-12T11:29:44.721Z,5.26
2018-05-12T11:35:39.736Z,5.64
2018-05-12T11:41:34.720Z,5.81
2018-05-12T11:47:29.747Z,6.63
2018-05-12T11:53:24.763Z,5.99
2018-05-12T11:59:19.739Z,5.39
2018-05-12T12:05:14.738Z,5.67
2018-05-12T12:11:09.799Z,5.42
2018-05-12T12:17:04.763Z,5.25
2018-05-12T12:22:59.783Z,4.8
2018-05-12T12:28:54.785Z,5.3
2018-05-12T12:34:49.767Z,5.96
2018-05-12T12:40:44.768Z,5.23
2018-05-12T12:46:39.764Z,5.41
2018-05-12T12:52:34.836Z,4.94
2018-05-12T12:58:29.780Z,4.69
2018-05-12T13:04:24.791Z,4.75
2018-05-12T13:10:19.835Z,4
2018-05-12T13:16:14.836Z,3.99
2018-05-12T13:22:09.893Z,4.61
2018-05-12T13:28:04.840Z,3.54
2018-05-12T13:33:59.826Z,4.11
2018-05-12T13:39:54.826Z,3.97
2018-05-12T13:45:49.794Z,3.44
2018-05-12T13:51:44.798Z,3.98
2018-05-12T13:57:39.844Z,3.22
2018-05-12T14:03:34.845Z,3.72
2018-05-12T14:09:29.880Z,3.67
2018-05-12T14:15:24.849Z,3.16
2018-05-12T14:21:19.859Z,3.27
2018-05-12T14:27:14.813Z,4
2018-05-12T14:33:09.856Z,3.45
2018-05-12T14:39:04.861Z,3.78
2018-05-12T14:44:59.875Z,3.81
2018-05-12T14:50:54.859Z,3.24
2018-05-12T14:56:49.866Z,3.05
2018-05-12T15:02:44.864Z,2.92
2018-05-12T15:08:39.857Z,3.53
2018-05-12T15:14:34.865Z,2.81
2018-05-12T15:20:29.851Z,3.05
2018-05-12T15:26:24.898Z,3.07
2018-05-12T15:32:19.881Z,3.46
2018-05-12T15:38:14.899Z,4.11
2018-05-12T15:44:10.042Z,4.42
2018-05-12T15:50:05.013Z,3.51
2018-05-12T15:55:59.904Z,4.1
2018-05-12T16:01:54.906Z,4.63
2018-05-12T16:07:49.904Z,4.43
2018-05-12T16:13:44.908Z,4.79
2018-05-12T16:19:39.905Z,4.04
2018-05-12T16:25:34.940Z,4.1
2018-05-12T16:31:29.899Z,5.21
2018-05-12T16:37:24.954Z,4.86
2018-05-12T16:43:19.929Z,4.47
2018-05-12T16:49:14.978Z,4.83
2018-05-12T16:55:09.925Z,4.89
2018-05-12T17:01:04.915Z,4.77
2018-05-12T17:06:59.910Z,5.07
2018-05-12T17:12:54.927Z,5.14
2018-05-12T17:18:49.949Z,4.96
2018-05-12T17:24:44.958Z,5.44
2018-05-12T17:30:40.051Z,5.1
2018-05-12T17:36:34.924Z,5.06
2018-05-12T17:42:29.936Z,5.1
2018-05-12T17:48:24.976Z,5.7
2018-05-12T17:54:19.973Z,6.05
2018-05-12T18:00:15.009Z,5.75
2018-05-12T18:06:10.046Z,5.91
2018-05-12T18:12:04.987Z,5.44
2018-05-12T18:18:00.040Z,5.07
2018-05-12T18:23:55.017Z,5.66
2018-05-12T18:29:49.989Z,6.23
2018-05-12T18:35:44.968Z,5.86
2018-05-12T18:41:40.019Z,5.97
2018-05-12T18:47:35.029Z,5.79
2018-05-12T18:53:29.975Z,6.04
2018-05-12T18:59:24.980Z,6.48
2018-05-12T19:05:20.033Z,6.69
2018-05-12T19:11:15.053Z,6.21
2018-05-12T19:17:10.120Z,7.25
2018-05-12T19:23:05.040Z,6.9
2018-05-12T19:29:00.039Z,7.09
2018-05-12T19:34:54.992Z,8.47
2018-05-12T19:40:50.026Z,7.19
2018-05-12T19:46:45.038Z,7.04
2018-05-12T19:52:40.023Z,9.13
2018-05-12T19:58:34.998Z,9.09
2018-05-12T20:04:30.024Z,8.9
2018-05-12T20:10:25.115Z,8.35
2018-05-12T20:16:20.042Z,8.31
2018-05-12T20:22:15.114Z,9.84
2018-05-12T20:28:10.032Z,8.54
2018-05-12T20:34:05.055Z,7.7
2018-05-12T20:40:00.168Z,8.02
2018-05-12T20:45:55.130Z,8.1
2018-05-12T20:51:50.147Z,8.05
2018-05-12T20:57:45.098Z,8.12
2018-05-12T21:03:40.089Z,7.37
2018-05-12T21:09:35.104Z,7.73
2018-05-12T21:15:30.132Z,7.82
2018-05-12T21:21:25.156Z,9.15
2018-05-12T21:27:20.083Z,8.92
2018-05-12T21:33:15.069Z,9.64
2018-05-12T21:39:10.093Z,9.75
2018-05-12T21:45:05.088Z,7.79
2018-05-12T21:51:00.071Z,9.52
2018-05-12T21:56:55.127Z,8.57
2018-05-12T22:02:50.082Z,8.57
2018-05-12T22:08:45.118Z,8.27
2018-05-12T22:14:40.096Z,7.43
2018-05-12T22:20:35.089Z,7.65
2018-05-12T22:26:30.098Z,7.97
2018-05-12T22:32:25.123Z,7.69
2018-05-12T22:38:20.090Z,7.88
2018-05-12T22:44:15.179Z,9.05
2018-05-12T22:50:10.131Z,8.14
2018-05-12T22:56:05.116Z,9.6
2018-05-12T23:02:00.219Z,9.28
2018-05-12T23:07:55.127Z,8.92
2018-05-12T23:13:50.103Z,8.88
2018-05-12T23:19:45.139Z,8.58
2018-05-12T23:25:40.169Z,8.54
2018-05-12T23:31:35.154Z,8.9
2018-05-12T23:37:30.174Z,9.2
2018-05-12T23:43:25.146Z,9.3
2018-05-12T23:49:20.161Z,9.28
2018-05-12T23:55:15.171Z,8.74
